sensor_id;sensor_type;location;lat;lon;timestamp;P1;durP1;ratioP1;P2;durP2;ratioP2
21492;SDS011;10908;50.690;4.400;2023-05-07T00:00:19;12.85;;;4.00;;
21492;SDS011;10908;50.690;4.400;2023-05-07T00:02:45;15.27;;;4.63;;
21492;SDS011;10908;50.690;4.400;2023-05-07T00:05:11;15.77;;;5.80;;
21492;SDS011;10908;50.690;4.400;2023-05-07T00:07:37;11.65;;;4.57;;
21492;SDS011;10908;50.690;4.400;2023-05-07T00:10:03;13.55;;;4.82;;
21492;SDS011;10908;50.690;4.400;2023-05-07T00:12:31;15.68;;;4.80;;
21492;SDS011;10908;50.690;4.400;2023-05-07T00:14:58;12.88;;;4.60;;
21492;SDS011;10908;50.690;4.400;2023-05-07T00:17:25;16.02;;;4.68;;
21492;SDS011;10908;50.690;4.400;2023-05-07T00:19:51;17.08;;;4.90;;
21492;SDS011;10908;50.690;4.400;2023-05-07T00:22:16;12.70;;;5.18;;
21492;SDS011;10908;50.690;4.400;2023-05-07T00:24:42;12.30;;;4.80;;
21492;SDS011;10908;50.690;4.400;2023-05-07T00:27:08;13.32;;;5.20;;
21492;SDS011;10908;50.690;4.400;2023-05-07T00:29:33;17.23;;;5.45;;
21492;SDS011;10908;50.690;4.400;2023-05-07T00:31:59;19.58;;;5.35;;
21492;SDS011;10908;50.690;4.400;2023-05-07T00:34:25;13.80;;;5.18;;
21492;SDS011;10908;50.690;4.400;2023-05-07T00:36:50;12.98;;;5.15;;
21492;SDS011;10908;50.690;4.400;2023-05-07T00:39:16;13.05;;;5.00;;
21492;SDS011;10908;50.690;4.400;2023-05-07T00:41:42;12.68;;;4.78;;
21492;SDS011;10908;50.690;4.400;2023-05-07T00:44:07;14.07;;;4.75;;
21492;SDS011;10908;50.690;4.400;2023-05-07T00:46:33;13.43;;;4.25;;
21492;SDS011;10908;50.690;4.400;2023-05-07T00:48:59;14.77;;;4.80;;
21492;SDS011;10908;50.690;4.400;2023-05-07T00:51:25;14.55;;;4.60;;
21492;SDS011;10908;50.690;4.400;2023-05-07T00:53:53;12.15;;;4.63;;
21492;SDS011;10908;50.690;4.400;2023-05-07T00:56:20;11.73;;;4.75;;
21492;SDS011;10908;50.690;4.400;2023-05-07T00:58:46;13.73;;;5.07;;
21492;SDS011;10908;50.690;4.400;2023-05-07T01:01:12;14.35;;;4.78;;
21492;SDS011;10908;50.690;4.400;2023-05-07T01:03:38;15.32;;;4.80;;
21492;SDS011;10908;50.690;4.400;2023-05-07T01:06:03;12.00;;;4.70;;
21492;SDS011;10908;50.690;4.400;2023-05-07T01:08:31;14.95;;;4.53;;
21492;SDS011;10908;50.690;4.400;2023-05-07T01:11:00;13.77;;;4.50;;
21492;SDS011;10908;50.690;4.400;2023-05-07T01:13:26;12.18;;;4.38;;
21492;SDS011;10908;50.690;4.400;2023-05-07T01:15:53;14.02;;;4.93;;
21492;SDS011;10908;50.690;4.400;2023-05-07T01:18:19;13.30;;;4.93;;
21492;SDS011;10908;50.690;4.400;2023-05-07T01:20:45;12.57;;;4.82;;
21492;SDS011;10908;50.690;4.400;2023-05-07T01:23:11;12.40;;;4.32;;
21492;SDS011;10908;50.690;4.400;2023-05-07T01:25:37;17.10;;;5.13;;
21492;SDS011;10908;50.690;4.400;2023-05-07T01:28:03;13.38;;;4.68;;
21492;SDS011;10908;50.690;4.400;2023-05-07T01:30:29;12.65;;;4.75;;
21492;SDS011;10908;50.690;4.400;2023-05-07T01:33:00;12.48;;;4.38;;
21492;SDS011;10908;50.690;4.400;2023-05-07T01:35:37;18.85;;;5.22;;
21492;SDS011;10908;50.690;4.400;2023-05-07T01:38:05;15.75;;;5.70;;
21492;SDS011;10908;50.690;4.400;2023-05-07T01:40:31;12.25;;;4.72;;
21492;SDS011;10908;50.690;4.400;2023-05-07T01:42:59;13.63;;;4.85;;
21492;SDS011;10908;50.690;4.400;2023-05-07T01:45:26;11.93;;;4.60;;
21492;SDS011;10908;50.690;4.400;2023-05-07T01:47:52;11.93;;;5.43;;
21492;SDS011;10908;50.690;4.400;2023-05-07T01:50:19;11.80;;;4.63;;
21492;SDS011;10908;50.690;4.400;2023-05-07T01:52:46;12.35;;;5.40;;
21492;SDS011;10908;50.690;4.400;2023-05-07T01:55:14;11.98;;;5.07;;
21492;SDS011;10908;50.690;4.400;2023-05-07T01:57:40;16.75;;;5.40;;
21492;SDS011;10908;50.690;4.400;2023-05-07T02:00:06;16.90;;;5.40;;
21492;SDS011;10908;50.690;4.400;2023-05-07T02:02:33;15.90;;;6.07;;
21492;SDS011;10908;50.690;4.400;2023-05-07T02:04:59;16.77;;;6.63;;
21492;SDS011;10908;50.690;4.400;2023-05-07T02:07:26;19.35;;;6.40;;
21492;SDS011;10908;50.690;4.400;2023-05-07T02:09:53;15.27;;;5.97;;
21492;SDS011;10908;50.690;4.400;2023-05-07T02:12:20;13.95;;;5.53;;
21492;SDS011;10908;50.690;4.400;2023-05-07T02:14:46;14.10;;;5.30;;
21492;SDS011;10908;50.690;4.400;2023-05-07T02:17:12;17.25;;;5.57;;
21492;SDS011;10908;50.690;4.400;2023-05-07T02:19:37;16.95;;;7.22;;
21492;SDS011;10908;50.690;4.400;2023-05-07T02:22:03;17.88;;;5.85;;
21492;SDS011;10908;50.690;4.400;2023-05-07T02:24:28;14.65;;;5.45;;
21492;SDS011;10908;50.690;4.400;2023-05-07T02:26:54;14.32;;;5.50;;
21492;SDS011;10908;50.690;4.400;2023-05-07T02:29:20;13.77;;;5.65;;
21492;SDS011;10908;50.690;4.400;2023-05-07T02:31:46;12.60;;;5.00;;
21492;SDS011;10908;50.690;4.400;2023-05-07T02:34:15;16.35;;;5.45;;
21492;SDS011;10908;50.690;4.400;2023-05-07T02:36:41;10.95;;;4.60;;
21492;SDS011;10908;50.690;4.400;2023-05-07T02:39:07;12.50;;;5.20;;
21492;SDS011;10908;50.690;4.400;2023-05-07T02:41:33;16.58;;;5.35;;
21492;SDS011;10908;50.690;4.400;2023-05-07T02:43:59;9.50;;;4.50;;
21492;SDS011;10908;50.690;4.400;2023-05-07T02:46:25;15.90;;;5.15;;
21492;SDS011;10908;50.690;4.400;2023-05-07T02:48:51;9.88;;;4.65;;
21492;SDS011;10908;50.690;4.400;2023-05-07T02:51:19;11.77;;;4.82;;
21492;SDS011;10908;50.690;4.400;2023-05-07T02:53:46;12.32;;;4.80;;
21492;SDS011;10908;50.690;4.400;2023-05-07T02:56:11;16.17;;;5.13;;
21492;SDS011;10908;50.690;4.400;2023-05-07T02:58:37;12.95;;;5.55;;
21492;SDS011;10908;50.690;4.400;2023-05-07T03:01:07;12.07;;;5.05;;
21492;SDS011;10908;50.690;4.400;2023-05-07T03:03:33;11.15;;;5.03;;
21492;SDS011;10908;50.690;4.400;2023-05-07T03:05:59;8.75;;;4.75;;
21492;SDS011;10908;50.690;4.400;2023-05-07T03:08:24;10.60;;;4.80;;
21492;SDS011;10908;50.690;4.400;2023-05-07T03:10:50;11.18;;;5.22;;
21492;SDS011;10908;50.690;4.400;2023-05-07T03:13:16;16.48;;;5.63;;
21492;SDS011;10908;50.690;4.400;2023-05-07T03:15:42;13.65;;;5.55;;
21492;SDS011;10908;50.690;4.400;2023-05-07T03:18:08;14.68;;;5.40;;
21492;SDS011;10908;50.690;4.400;2023-05-07T03:20:34;12.05;;;5.05;;
21492;SDS011;10908;50.690;4.400;2023-05-07T03:23:01;12.98;;;5.15;;
21492;SDS011;10908;50.690;4.400;2023-05-07T03:25:27;11.50;;;5.07;;
21492;SDS011;10908;50.690;4.400;2023-05-07T03:27:55;15.45;;;5.00;;
21492;SDS011;10908;50.690;4.400;2023-05-07T03:30:21;13.65;;;5.20;;
21492;SDS011;10908;50.690;4.400;2023-05-07T03:32:47;12.15;;;4.70;;
21492;SDS011;10908;50.690;4.400;2023-05-07T03:35:12;15.73;;;4.65;;
21492;SDS011;10908;50.690;4.400;2023-05-07T03:37:38;13.02;;;5.07;;
21492;SDS011;10908;50.690;4.400;2023-05-07T03:40:05;13.35;;;4.90;;
21492;SDS011;10908;50.690;4.400;2023-05-07T03:42:32;12.82;;;4.93;;
21492;SDS011;10908;50.690;4.400;2023-05-07T03:44:58;14.57;;;5.20;;
21492;SDS011;10908;50.690;4.400;2023-05-07T03:47:23;13.93;;;5.22;;
21492;SDS011;10908;50.690;4.400;2023-05-07T03:49:49;13.75;;;5.30;;
21492;SDS011;10908;50.690;4.400;2023-05-07T03:52:15;14.48;;;5.22;;
21492;SDS011;10908;50.690;4.400;2023-05-07T03:54:41;13.40;;;5.00;;
21492;SDS011;10908;50.690;4.400;2023-05-07T03:57:06;14.98;;;5.85;;
21492;SDS011;10908;50.690;4.400;2023-05-07T03:59:32;17.35;;;5.53;;
21492;SDS011;10908;50.690;4.400;2023-05-07T04:01:58;13.30;;;5.15;;
21492;SDS011;10908;50.690;4.400;2023-05-07T04:04:23;17.23;;;5.50;;
21492;SDS011;10908;50.690;4.400;2023-05-07T04:06:49;11.48;;;4.95;;
21492;SDS011;10908;50.690;4.400;2023-05-07T04:09:15;12.00;;;5.07;;
21492;SDS011;10908;50.690;4.400;2023-05-07T04:11:40;13.20;;;5.35;;
21492;SDS011;10908;50.690;4.400;2023-05-07T04:14:06;13.13;;;5.20;;
21492;SDS011;10908;50.690;4.400;2023-05-07T04:16:32;14.95;;;6.03;;
21492;SDS011;10908;50.690;4.400;2023-05-07T04:18:57;12.55;;;5.15;;
21492;SDS011;10908;50.690;4.400;2023-05-07T04:21:23;16.15;;;5.30;;
21492;SDS011;10908;50.690;4.400;2023-05-07T04:23:49;12.98;;;4.80;;
21492;SDS011;10908;50.690;4.400;2023-05-07T04:26:15;13.35;;;4.90;;
21492;SDS011;10908;50.690;4.400;2023-05-07T04:28:41;11.73;;;4.70;;
21492;SDS011;10908;50.690;4.400;2023-05-07T04:31:06;13.52;;;5.13;;
21492;SDS011;10908;50.690;4.400;2023-05-07T04:33:32;13.30;;;4.80;;
21492;SDS011;10908;50.690;4.400;2023-05-07T04:35:58;14.45;;;4.75;;
21492;SDS011;10908;50.690;4.400;2023-05-07T04:38:28;10.93;;;4.60;;
21492;SDS011;10908;50.690;4.400;2023-05-07T04:40:58;14.20;;;5.40;;
21492;SDS011;10908;50.690;4.400;2023-05-07T04:43:28;14.27;;;5.25;;
21492;SDS011;10908;50.690;4.400;2023-05-07T04:45:54;12.77;;;5.07;;
21492;SDS011;10908;50.690;4.400;2023-05-07T04:48:20;13.65;;;5.30;;
21492;SDS011;10908;50.690;4.400;2023-05-07T04:50:49;17.15;;;5.32;;
21492;SDS011;10908;50.690;4.400;2023-05-07T04:53:15;10.50;;;4.30;;
21492;SDS011;10908;50.690;4.400;2023-05-07T04:55:41;11.80;;;4.47;;
21492;SDS011;10908;50.690;4.400;2023-05-07T04:58:07;15.70;;;5.30;;
21492;SDS011;10908;50.690;4.400;2023-05-07T05:00:34;13.52;;;5.22;;
21492;SDS011;10908;50.690;4.400;2023-05-07T05:02:59;11.23;;;4.97;;
21492;SDS011;10908;50.690;4.400;2023-05-07T05:05:25;10.77;;;4.80;;
21492;SDS011;10908;50.690;4.400;2023-05-07T05:07:51;11.38;;;4.90;;
21492;SDS011;10908;50.690;4.400;2023-05-07T05:10:17;11.07;;;5.00;;
21492;SDS011;10908;50.690;4.400;2023-05-07T05:12:42;11.73;;;5.00;;
21492;SDS011;10908;50.690;4.400;2023-05-07T05:15:08;10.55;;;4.43;;
21492;SDS011;10908;50.690;4.400;2023-05-07T05:17:35;12.00;;;4.60;;
21492;SDS011;10908;50.690;4.400;2023-05-07T05:20:01;12.52;;;4.80;;
21492;SDS011;10908;50.690;4.400;2023-05-07T05:22:27;11.27;;;4.97;;
21492;SDS011;10908;50.690;4.400;2023-05-07T05:24:56;14.85;;;5.40;;
21492;SDS011;10908;50.690;4.400;2023-05-07T05:27:21;11.63;;;4.95;;
21492;SDS011;10908;50.690;4.400;2023-05-07T05:29:48;12.07;;;5.22;;
21492;SDS011;10908;50.690;4.400;2023-05-07T05:32:13;14.45;;;5.65;;
21492;SDS011;10908;50.690;4.400;2023-05-07T05:34:39;13.27;;;5.57;;
21492;SDS011;10908;50.690;4.400;2023-05-07T05:37:04;12.00;;;5.40;;
21492;SDS011;10908;50.690;4.400;2023-05-07T05:39:30;12.85;;;5.20;;
21492;SDS011;10908;50.690;4.400;2023-05-07T05:41:56;12.35;;;5.15;;
21492;SDS011;10908;50.690;4.400;2023-05-07T05:44:22;13.38;;;5.32;;
21492;SDS011;10908;50.690;4.400;2023-05-07T05:46:47;14.38;;;5.30;;
21492;SDS011;10908;50.690;4.400;2023-05-07T05:49:14;9.98;;;4.53;;
21492;SDS011;10908;50.690;4.400;2023-05-07T05:51:40;12.70;;;5.00;;
21492;SDS011;10908;50.690;4.400;2023-05-07T05:54:06;14.02;;;4.82;;
21492;SDS011;10908;50.690;4.400;2023-05-07T05:56:31;13.52;;;5.03;;
21492;SDS011;10908;50.690;4.400;2023-05-07T05:58:57;10.80;;;4.53;;
21492;SDS011;10908;50.690;4.400;2023-05-07T06:01:23;10.52;;;4.80;;
21492;SDS011;10908;50.690;4.400;2023-05-07T06:03:49;12.60;;;4.47;;
21492;SDS011;10908;50.690;4.400;2023-05-07T06:06:14;13.80;;;5.57;;
21492;SDS011;10908;50.690;4.400;2023-05-07T06:08:40;11.88;;;4.78;;
21492;SDS011;10908;50.690;4.400;2023-05-07T06:11:08;14.70;;;4.85;;
21492;SDS011;10908;50.690;4.400;2023-05-07T06:13:33;13.70;;;5.03;;
21492;SDS011;10908;50.690;4.400;2023-05-07T06:15:59;10.68;;;4.80;;
21492;SDS011;10908;50.690;4.400;2023-05-07T06:18:25;10.90;;;4.82;;
21492;SDS011;10908;50.690;4.400;2023-05-07T06:20:51;14.70;;;5.13;;
21492;SDS011;10908;50.690;4.400;2023-05-07T06:23:17;11.65;;;4.93;;
21492;SDS011;10908;50.690;4.400;2023-05-07T06:25:47;13.40;;;4.65;;
21492;SDS011;10908;50.690;4.400;2023-05-07T06:28:15;12.63;;;5.00;;
21492;SDS011;10908;50.690;4.400;2023-05-07T06:30:40;13.82;;;4.50;;
21492;SDS011;10908;50.690;4.400;2023-05-07T06:33:06;12.30;;;4.78;;
21492;SDS011;10908;50.690;4.400;2023-05-07T06:35:32;11.25;;;4.32;;
21492;SDS011;10908;50.690;4.400;2023-05-07T06:37:57;11.05;;;4.72;;
21492;SDS011;10908;50.690;4.400;2023-05-07T06:40:24;13.40;;;4.78;;
21492;SDS011;10908;50.690;4.400;2023-05-07T06:42:50;11.77;;;4.80;;
21492;SDS011;10908;50.690;4.400;2023-05-07T06:45:15;11.75;;;4.57;;
21492;SDS011;10908;50.690;4.400;2023-05-07T06:47:41;11.50;;;4.78;;
21492;SDS011;10908;50.690;4.400;2023-05-07T06:50:07;11.05;;;4.05;;
21492;SDS011;10908;50.690;4.400;2023-05-07T06:52:34;10.07;;;4.80;;
21492;SDS011;10908;50.690;4.400;2023-05-07T06:55:00;12.40;;;4.72;;
21492;SDS011;10908;50.690;4.400;2023-05-07T06:57:26;11.98;;;4.53;;
21492;SDS011;10908;50.690;4.400;2023-05-07T06:59:52;11.00;;;4.43;;
21492;SDS011;10908;50.690;4.400;2023-05-07T07:02:17;11.02;;;4.70;;
21492;SDS011;10908;50.690;4.400;2023-05-07T07:04:43;11.55;;;4.32;;
21492;SDS011;10908;50.690;4.400;2023-05-07T07:07:10;14.23;;;4.70;;
21492;SDS011;10908;50.690;4.400;2023-05-07T07:09:36;10.32;;;4.93;;
21492;SDS011;10908;50.690;4.400;2023-05-07T07:12:01;11.77;;;5.10;;
21492;SDS011;10908;50.690;4.400;2023-05-07T07:14:27;12.15;;;4.82;;
21492;SDS011;10908;50.690;4.400;2023-05-07T07:16:53;10.60;;;4.57;;
21492;SDS011;10908;50.690;4.400;2023-05-07T07:19:18;11.15;;;4.63;;
21492;SDS011;10908;50.690;4.400;2023-05-07T07:21:45;11.55;;;4.70;;
21492;SDS011;10908;50.690;4.400;2023-05-07T07:24:11;11.55;;;4.57;;
21492;SDS011;10908;50.690;4.400;2023-05-07T07:26:37;10.95;;;4.50;;
21492;SDS011;10908;50.690;4.400;2023-05-07T07:29:04;10.20;;;4.30;;
21492;SDS011;10908;50.690;4.400;2023-05-07T07:31:31;8.48;;;3.70;;
21492;SDS011;10908;50.690;4.400;2023-05-07T07:33:57;9.43;;;3.88;;
21492;SDS011;10908;50.690;4.400;2023-05-07T07:36:23;9.80;;;3.67;;
21492;SDS011;10908;50.690;4.400;2023-05-07T07:38:48;8.73;;;3.35;;
21492;SDS011;10908;50.690;4.400;2023-05-07T07:41:14;9.07;;;3.70;;
21492;SDS011;10908;50.690;4.400;2023-05-07T07:43:40;9.00;;;3.38;;
21492;SDS011;10908;50.690;4.400;2023-05-07T07:46:05;8.73;;;3.20;;
21492;SDS011;10908;50.690;4.400;2023-05-07T07:48:31;12.05;;;3.95;;
21492;SDS011;10908;50.690;4.400;2023-05-07T07:50:56;11.98;;;4.00;;
21492;SDS011;10908;50.690;4.400;2023-05-07T07:53:22;12.02;;;3.63;;
21492;SDS011;10908;50.690;4.400;2023-05-07T07:55:48;11.52;;;3.33;;
21492;SDS011;10908;50.690;4.400;2023-05-07T07:58:13;9.80;;;3.15;;
21492;SDS011;10908;50.690;4.400;2023-05-07T08:00:39;9.35;;;3.67;;
21492;SDS011;10908;50.690;4.400;2023-05-07T08:03:05;9.60;;;3.40;;
21492;SDS011;10908;50.690;4.400;2023-05-07T08:05:32;9.52;;;3.65;;
21492;SDS011;10908;50.690;4.400;2023-05-07T08:07:57;11.48;;;3.40;;
21492;SDS011;10908;50.690;4.400;2023-05-07T08:10:23;7.97;;;3.10;;
21492;SDS011;10908;50.690;4.400;2023-05-07T08:12:49;8.18;;;3.45;;
21492;SDS011;10908;50.690;4.400;2023-05-07T08:15:15;9.68;;;2.95;;
21492;SDS011;10908;50.690;4.400;2023-05-07T08:17:41;8.90;;;3.50;;
21492;SDS011;10908;50.690;4.400;2023-05-07T08:20:07;8.70;;;2.95;;
21492;SDS011;10908;50.690;4.400;2023-05-07T08:22:34;8.10;;;3.28;;
21492;SDS011;10908;50.690;4.400;2023-05-07T08:25:00;10.35;;;3.63;;
21492;SDS011;10908;50.690;4.400;2023-05-07T08:27:26;8.43;;;3.20;;
21492;SDS011;10908;50.690;4.400;2023-05-07T08:29:52;8.20;;;3.10;;
21492;SDS011;10908;50.690;4.400;2023-05-07T08:32:18;9.70;;;3.28;;
21492;SDS011;10908;50.690;4.400;2023-05-07T08:34:43;6.28;;;2.92;;
21492;SDS011;10908;50.690;4.400;2023-05-07T08:37:09;8.02;;;3.25;;
21492;SDS011;10908;50.690;4.400;2023-05-07T08:39:35;9.65;;;2.95;;
21492;SDS011;10908;50.690;4.400;2023-05-07T08:42:01;10.20;;;3.45;;
21492;SDS011;10908;50.690;4.400;2023-05-07T08:44:32;7.68;;;3.30;;
21492;SDS011;10908;50.690;4.400;2023-05-07T08:46:59;8.93;;;3.00;;
21492;SDS011;10908;50.690;4.400;2023-05-07T08:49:27;7.13;;;3.10;;
21492;SDS011;10908;50.690;4.400;2023-05-07T08:51:53;8.45;;;3.95;;
21492;SDS011;10908;50.690;4.400;2023-05-07T08:54:20;8.82;;;3.70;;
21492;SDS011;10908;50.690;4.400;2023-05-07T08:56:46;8.60;;;3.70;;
21492;SDS011;10908;50.690;4.400;2023-05-07T08:59:13;8.98;;;4.10;;
21492;SDS011;10908;50.690;4.400;2023-05-07T09:01:38;10.40;;;3.97;;
21492;SDS011;10908;50.690;4.400;2023-05-07T09:04:04;9.80;;;3.60;;
21492;SDS011;10908;50.690;4.400;2023-05-07T09:06:31;7.97;;;4.03;;
21492;SDS011;10908;50.690;4.400;2023-05-07T09:08:58;9.20;;;3.90;;
21492;SDS011;10908;50.690;4.400;2023-05-07T09:11:26;8.88;;;3.60;;
21492;SDS011;10908;50.690;4.400;2023-05-07T09:13:55;9.20;;;3.78;;
21492;SDS011;10908;50.690;4.400;2023-05-07T09:16:25;7.13;;;3.28;;
21492;SDS011;10908;50.690;4.400;2023-05-07T09:18:52;6.72;;;2.95;;
21492;SDS011;10908;50.690;4.400;2023-05-07T09:21:18;6.65;;;3.33;;
21492;SDS011;10908;50.690;4.400;2023-05-07T09:23:45;8.27;;;3.10;;
21492;SDS011;10908;50.690;4.400;2023-05-07T09:26:13;7.43;;;2.58;;
21492;SDS011;10908;50.690;4.400;2023-05-07T09:28:40;7.53;;;3.25;;
21492;SDS011;10908;50.690;4.400;2023-05-07T09:31:06;7.57;;;2.60;;
21492;SDS011;10908;50.690;4.400;2023-05-07T09:33:33;7.03;;;2.58;;
21492;SDS011;10908;50.690;4.400;2023-05-07T09:36:02;8.70;;;2.78;;
21492;SDS011;10908;50.690;4.400;2023-05-07T09:38:32;6.95;;;3.28;;
21492;SDS011;10908;50.690;4.400;2023-05-07T09:41:05;10.13;;;3.53;;
21492;SDS011;10908;50.690;4.400;2023-05-07T09:43:35;7.55;;;3.30;;
21492;SDS011;10908;50.690;4.400;2023-05-07T09:46:09;9.05;;;2.95;;
21492;SDS011;10908;50.690;4.400;2023-05-07T09:48:38;8.65;;;3.20;;
21492;SDS011;10908;50.690;4.400;2023-05-07T09:51:11;7.78;;;3.22;;
21492;SDS011;10908;50.690;4.400;2023-05-07T09:53:40;7.93;;;2.63;;
21492;SDS011;10908;50.690;4.400;2023-05-07T09:56:08;5.60;;;2.65;;
21492;SDS011;10908;50.690;4.400;2023-05-07T09:58:34;5.60;;;2.67;;
21492;SDS011;10908;50.690;4.400;2023-05-07T10:01:03;5.82;;;2.45;;
21492;SDS011;10908;50.690;4.400;2023-05-07T10:03:29;6.35;;;2.75;;
21492;SDS011;10908;50.690;4.400;2023-05-07T10:05:58;5.72;;;2.40;;
21492;SDS011;10908;50.690;4.400;2023-05-07T10:08:24;5.88;;;2.50;;
21492;SDS011;10908;50.690;4.400;2023-05-07T10:10:50;7.07;;;2.53;;
21492;SDS011;10908;50.690;4.400;2023-05-07T10:13:16;6.93;;;2.42;;
21492;SDS011;10908;50.690;4.400;2023-05-07T10:15:44;4.30;;;1.83;;
21492;SDS011;10908;50.690;4.400;2023-05-07T10:18:10;4.68;;;2.10;;
21492;SDS011;10908;50.690;4.400;2023-05-07T10:20:38;5.78;;;2.17;;
21492;SDS011;10908;50.690;4.400;2023-05-07T10:23:04;5.53;;;2.42;;
21492;SDS011;10908;50.690;4.400;2023-05-07T10:25:31;5.53;;;2.30;;
21492;SDS011;10908;50.690;4.400;2023-05-07T10:27:59;5.32;;;2.13;;
21492;SDS011;10908;50.690;4.400;2023-05-07T10:30:36;6.28;;;2.33;;
21492;SDS011;10908;50.690;4.400;2023-05-07T10:33:10;5.50;;;2.33;;
21492;SDS011;10908;50.690;4.400;2023-05-07T10:35:40;6.78;;;2.30;;
21492;SDS011;10908;50.690;4.400;2023-05-07T10:38:09;5.35;;;2.28;;
21492;SDS011;10908;50.690;4.400;2023-05-07T10:40:35;4.97;;;2.30;;
21492;SDS011;10908;50.690;4.400;2023-05-07T10:43:02;5.70;;;2.13;;
21492;SDS011;10908;50.690;4.400;2023-05-07T10:45:32;6.18;;;2.33;;
21492;SDS011;10908;50.690;4.400;2023-05-07T10:48:08;6.97;;;2.65;;
21492;SDS011;10908;50.690;4.400;2023-05-07T10:50:37;6.22;;;2.40;;
21492;SDS011;10908;50.690;4.400;2023-05-07T10:58:35;6.72;;;2.40;;
21492;SDS011;10908;50.690;4.400;2023-05-07T11:01:02;6.45;;;2.35;;
21492;SDS011;10908;50.690;4.400;2023-05-07T11:03:27;7.88;;;2.53;;
21492;SDS011;10908;50.690;4.400;2023-05-07T11:08:55;6.13;;;3.13;;
21492;SDS011;10908;50.690;4.400;2023-05-07T11:14:09;8.90;;;3.25;;
21492;SDS011;10908;50.690;4.400;2023-05-07T11:16:35;7.97;;;3.45;;
21492;SDS011;10908;50.690;4.400;2023-05-07T11:19:03;6.75;;;3.15;;
21492;SDS011;10908;50.690;4.400;2023-05-07T11:21:36;7.32;;;3.50;;
21492;SDS011;10908;50.690;4.400;2023-05-07T11:24:07;7.40;;;3.20;;
21492;SDS011;10908;50.690;4.400;2023-05-07T11:26:44;8.70;;;3.60;;
21492;SDS011;10908;50.690;4.400;2023-05-07T11:29:17;7.85;;;3.33;;
21492;SDS011;10908;50.690;4.400;2023-05-07T11:31:51;7.28;;;3.75;;
21492;SDS011;10908;50.690;4.400;2023-05-07T11:34:23;7.72;;;4.00;;
21492;SDS011;10908;50.690;4.400;2023-05-07T11:36:50;8.50;;;4.53;;
21492;SDS011;10908;50.690;4.400;2023-05-07T11:39:23;7.53;;;4.55;;
21492;SDS011;10908;50.690;4.400;2023-05-07T11:41:50;10.90;;;4.93;;
21492;SDS011;10908;50.690;4.400;2023-05-07T11:44:15;11.25;;;5.40;;
21492;SDS011;10908;50.690;4.400;2023-05-07T11:46:43;12.40;;;6.03;;
21492;SDS011;10908;50.690;4.400;2023-05-07T11:49:10;12.98;;;6.35;;
21492;SDS011;10908;50.690;4.400;2023-05-07T11:51:35;9.60;;;5.50;;
21492;SDS011;10908;50.690;4.400;2023-05-07T11:54:03;9.60;;;6.15;;
21492;SDS011;10908;50.690;4.400;2023-05-07T11:56:29;12.07;;;6.68;;
21492;SDS011;10908;50.690;4.400;2023-05-07T11:58:58;10.65;;;6.93;;
21492;SDS011;10908;50.690;4.400;2023-05-07T12:01:24;10.63;;;6.53;;
21492;SDS011;10908;50.690;4.400;2023-05-07T12:03:50;12.68;;;6.93;;
21492;SDS011;10908;50.690;4.400;2023-05-07T12:06:15;11.90;;;7.88;;
21492;SDS011;10908;50.690;4.400;2023-05-07T12:08:42;12.70;;;8.63;;
21492;SDS011;10908;50.690;4.400;2023-05-07T12:11:09;11.85;;;9.38;;
21492;SDS011;10908;50.690;4.400;2023-05-07T12:13:38;13.73;;;10.60;;
21492;SDS011;10908;50.690;4.400;2023-05-07T12:16:03;15.52;;;11.40;;
21492;SDS011;10908;50.690;4.400;2023-05-07T12:18:30;15.15;;;9.90;;
21492;SDS011;10908;50.690;4.400;2023-05-07T12:20:56;16.85;;;9.68;;
21492;SDS011;10908;50.690;4.400;2023-05-07T12:23:22;13.20;;;9.90;;
21492;SDS011;10908;50.690;4.400;2023-05-07T12:25:48;14.45;;;10.27;;
21492;SDS011;10908;50.690;4.400;2023-05-07T12:28:14;13.63;;;9.27;;
21492;SDS011;10908;50.690;4.400;2023-05-07T12:30:44;13.27;;;10.07;;
21492;SDS011;10908;50.690;4.400;2023-05-07T12:33:11;14.45;;;10.05;;
21492;SDS011;10908;50.690;4.400;2023-05-07T12:35:40;13.73;;;10.18;;
21492;SDS011;10908;50.690;4.400;2023-05-07T12:38:11;13.32;;;9.98;;
21492;SDS011;10908;50.690;4.400;2023-05-07T12:43:24;12.73;;;9.95;;
21492;SDS011;10908;50.690;4.400;2023-05-07T12:45:54;13.85;;;8.13;;
21492;SDS011;10908;50.690;4.400;2023-05-07T12:48:22;11.00;;;7.20;;
21492;SDS011;10908;50.690;4.400;2023-05-07T12:50:52;10.50;;;6.38;;
21492;SDS011;10908;50.690;4.400;2023-05-07T12:53:20;10.43;;;6.97;;
21492;SDS011;10908;50.690;4.400;2023-05-07T12:55:48;12.23;;;7.55;;
21492;SDS011;10908;50.690;4.400;2023-05-07T12:58:15;13.32;;;6.80;;
21492;SDS011;10908;50.690;4.400;2023-05-07T13:00:47;11.95;;;8.18;;
21492;SDS011;10908;50.690;4.400;2023-05-07T13:03:21;15.52;;;7.90;;
21492;SDS011;10908;50.690;4.400;2023-05-07T13:05:51;12.38;;;8.65;;
21492;SDS011;10908;50.690;4.400;2023-05-07T13:08:24;14.40;;;8.52;;
21492;SDS011;10908;50.690;4.400;2023-05-07T13:10:58;11.18;;;8.38;;
21492;SDS011;10908;50.690;4.400;2023-05-07T13:13:27;11.95;;;7.90;;
21492;SDS011;10908;50.690;4.400;2023-05-07T13:15:53;11.48;;;7.85;;
21492;SDS011;10908;50.690;4.400;2023-05-07T13:18:19;12.70;;;7.90;;
21492;SDS011;10908;50.690;4.400;2023-05-07T13:20:45;10.63;;;7.53;;
21492;SDS011;10908;50.690;4.400;2023-05-07T13:23:10;12.43;;;7.93;;
21492;SDS011;10908;50.690;4.400;2023-05-07T13:25:36;13.07;;;7.47;;
21492;SDS011;10908;50.690;4.400;2023-05-07T13:28:02;10.45;;;7.15;;
21492;SDS011;10908;50.690;4.400;2023-05-07T13:30:29;10.65;;;7.68;;
21492;SDS011;10908;50.690;4.400;2023-05-07T13:32:56;11.88;;;8.32;;
21492;SDS011;10908;50.690;4.400;2023-05-07T13:35:22;12.07;;;8.80;;
21492;SDS011;10908;50.690;4.400;2023-05-07T13:37:47;12.60;;;8.75;;
21492;SDS011;10908;50.690;4.400;2023-05-07T13:40:14;13.60;;;9.00;;
21492;SDS011;10908;50.690;4.400;2023-05-07T13:42:40;15.90;;;9.13;;
21492;SDS011;10908;50.690;4.400;2023-05-07T13:45:06;12.32;;;9.35;;
21492;SDS011;10908;50.690;4.400;2023-05-07T13:50:53;14.30;;;10.00;;
21492;SDS011;10908;50.690;4.400;2023-05-07T13:53:19;14.95;;;10.60;;
21492;SDS011;10908;50.690;4.400;2023-05-07T13:55:45;12.73;;;9.90;;
21492;SDS011;10908;50.690;4.400;2023-05-07T13:58:10;13.50;;;9.52;;
21492;SDS011;10908;50.690;4.400;2023-05-07T14:00:36;12.57;;;8.77;;
21492;SDS011;10908;50.690;4.400;2023-05-07T14:03:03;11.70;;;8.30;;
21492;SDS011;10908;50.690;4.400;2023-05-07T14:05:30;11.98;;;8.00;;
21492;SDS011;10908;50.690;4.400;2023-05-07T14:07:56;10.57;;;7.72;;
21492;SDS011;10908;50.690;4.400;2023-05-07T14:10:22;12.18;;;7.85;;
21492;SDS011;10908;50.690;4.400;2023-05-07T14:12:49;11.88;;;8.43;;
21492;SDS011;10908;50.690;4.400;2023-05-07T14:15:15;12.73;;;8.32;;
21492;SDS011;10908;50.690;4.400;2023-05-07T14:17:41;13.57;;;8.02;;
21492;SDS011;10908;50.690;4.400;2023-05-07T14:20:07;12.90;;;8.15;;
21492;SDS011;10908;50.690;4.400;2023-05-07T14:22:33;12.48;;;8.65;;
21492;SDS011;10908;50.690;4.400;2023-05-07T14:24:59;11.45;;;7.82;;
21492;SDS011;10908;50.690;4.400;2023-05-07T14:27:25;11.30;;;7.72;;
21492;SDS011;10908;50.690;4.400;2023-05-07T14:29:50;10.52;;;8.05;;
21492;SDS011;10908;50.690;4.400;2023-05-07T14:32:17;12.23;;;8.57;;
21492;SDS011;10908;50.690;4.400;2023-05-07T14:34:43;14.13;;;8.82;;
21492;SDS011;10908;50.690;4.400;2023-05-07T14:37:09;14.15;;;9.73;;
21492;SDS011;10908;50.690;4.400;2023-05-07T14:39:35;13.10;;;10.02;;
21492;SDS011;10908;50.690;4.400;2023-05-07T14:42:01;13.55;;;10.25;;
21492;SDS011;10908;50.690;4.400;2023-05-07T14:44:26;13.90;;;9.88;;
21492;SDS011;10908;50.690;4.400;2023-05-07T14:46:52;12.20;;;8.30;;
21492;SDS011;10908;50.690;4.400;2023-05-07T14:49:18;10.85;;;9.20;;
21492;SDS011;10908;50.690;4.400;2023-05-07T14:51:44;10.50;;;9.05;;